Terminal Aerodrome Forecast
Issued by NWS San Angelo, TX

Home | Current Version | Previous Version | Text Only | Print | Product List | Glossary On
Versions: 1 2 3 4 5 6 7 8 9 10 11 12
986
FTUS44 KSJT 261120
TAFSJT
TAF
KSJT 261120Z 2612/2712 31012G19KT P6SM SCT250
     FM261400 32016G25KT P6SM FEW250
     FM270000 32011KT P6SM FEW250
     FM270400 17007KT P6SM FEW250=

USA.gov is the U.S. government's official web portal to all federal, state and local government web resources and services.